sensor_id;sensor_type;location;lat;lon;timestamp;pressure;altitude;pressure_sealevel;temperature;humidity
51178;BME280;37243;49.814;8.652;2023-01-31T00:00:06;101130.44;;;25.48;27.05
51178;BME280;37243;49.814;8.652;2023-01-31T00:02:35;101128.50;;;25.48;26.79
51178;BME280;37243;49.814;8.652;2023-01-31T00:05:03;101133.19;;;25.48;27.42
51178;BME280;37243;49.814;8.652;2023-01-31T00:07:32;101132.03;;;25.49;27.39
51178;BME280;37243;49.814;8.652;2023-01-31T00:10:00;101140.28;;;25.49;27.13
51178;BME280;37243;49.814;8.652;2023-01-31T00:12:29;101130.94;;;25.50;26.74
51178;BME280;37243;49.814;8.652;2023-01-31T00:14:59;101133.69;;;25.50;26.67
51178;BME280;37243;49.814;8.652;2023-01-31T00:17:28;101130.94;;;25.50;27.07
51178;BME280;37243;49.814;8.652;2023-01-31T00:19:56;101130.94;;;25.50;26.76
51178;BME280;37243;49.814;8.652;2023-01-31T00:22:24;101124.34;;;25.51;26.68
51178;BME280;37243;49.814;8.652;2023-01-31T00:24:52;101120.78;;;25.50;27.43
51178;BME280;37243;49.814;8.652;2023-01-31T00:27:21;101124.34;;;25.51;26.82
51178;BME280;37243;49.814;8.652;2023-01-31T00:29:49;101131.75;;;25.50;26.73
51178;BME280;37243;49.814;8.652;2023-01-31T00:32:20;101131.44;;;25.52;27.10
51178;BME280;37243;49.814;8.652;2023-01-31T00:34:51;101124.34;;;25.51;26.72
51178;BME280;37243;49.814;8.652;2023-01-31T00:37:19;101120.44;;;25.52;26.73
51178;BME280;37243;49.814;8.652;2023-01-31T00:39:47;101116.59;;;25.53;27.41
51178;BME280;37243;49.814;8.652;2023-01-31T00:42:16;101114.97;;;25.52;26.88
51178;BME280;37243;49.814;8.652;2023-01-31T00:44:44;101113.03;;;25.52;26.90
51178;BME280;37243;49.814;8.652;2023-01-31T00:47:12;101112.22;;;25.52;26.70
51178;BME280;37243;49.814;8.652;2023-01-31T00:49:43;101120.97;;;25.54;27.22
51178;BME280;37243;49.814;8.652;2023-01-31T00:52:11;101122.91;;;25.53;26.80
51178;BME280;37243;49.814;8.652;2023-01-31T00:54:39;101123.72;;;25.54;26.98
51178;BME280;37243;49.814;8.652;2023-01-31T00:57:08;101120.16;;;25.53;26.71
51178;BME280;37243;49.814;8.652;2023-01-31T00:59:36;101120.97;;;25.54;27.30
51178;BME280;37243;49.814;8.652;2023-01-31T01:02:04;101123.72;;;25.54;26.85
51178;BME280;37243;49.814;8.652;2023-01-31T01:04:33;101126.47;;;25.54;27.04
51178;BME280;37243;49.814;8.652;2023-01-31T01:07:03;101124.53;;;25.54;26.79
51178;BME280;37243;49.814;8.652;2023-01-31T01:09:32;101127.25;;;25.54;26.89
51178;BME280;37243;49.814;8.652;2023-01-31T01:12:00;101134.72;;;25.54;26.56
51178;BME280;37243;49.814;8.652;2023-01-31T01:14:28;101127.25;;;25.54;27.00
51178;BME280;37243;49.814;8.652;2023-01-31T01:16:57;101135.50;;;25.54;27.17
51178;BME280;37243;49.814;8.652;2023-01-31T01:19:25;101131.97;;;25.54;27.13
51178;BME280;37243;49.814;8.652;2023-01-31T01:21:54;101133.91;;;25.53;26.80
51178;BME280;37243;49.814;8.652;2023-01-31T01:24:25;101139.41;;;25.53;26.82
51178;BME280;37243;49.814;8.652;2023-01-31T01:26:53;101138.25;;;25.54;27.11
51178;BME280;37243;49.814;8.652;2023-01-31T01:29:21;101146.22;;;25.56;26.80
51178;BME280;37243;49.814;8.652;2023-01-31T01:31:50;101142.97;;;25.54;26.93
51178;BME280;37243;49.814;8.652;2023-01-31T01:34:18;101157.81;;;25.53;26.91
51178;BME280;37243;49.814;8.652;2023-01-31T01:36:46;101152.00;;;25.54;26.53
51178;BME280;37243;49.814;8.652;2023-01-31T01:39:15;101152.00;;;25.54;26.80
51178;BME280;37243;49.814;8.652;2023-01-31T01:41:46;101156.38;;;25.55;27.00
51178;BME280;37243;49.814;8.652;2023-01-31T01:44:46;101159.44;;;25.54;27.04
51178;BME280;37243;49.814;8.652;2023-01-31T01:47:22;101162.97;;;25.54;27.17
51178;BME280;37243;49.814;8.652;2023-01-31T01:49:56;101153.94;;;25.54;26.86
51178;BME280;37243;49.814;8.652;2023-01-31T01:52:27;101155.88;;;25.53;27.13
51178;BME280;37243;49.814;8.652;2023-01-31T01:54:59;101158.31;;;25.55;27.18
51178;BME280;37243;49.814;8.652;2023-01-31T01:57:34;101158.63;;;25.53;26.99
51178;BME280;37243;49.814;8.652;2023-01-31T02:00:09;101154.75;;;25.54;26.50
51178;BME280;37243;49.814;8.652;2023-01-31T02:02:41;101158.63;;;25.53;26.92
51178;BME280;37243;49.814;8.652;2023-01-31T02:05:11;101159.44;;;25.54;26.53
51178;BME280;37243;49.814;8.652;2023-01-31T02:07:43;101162.97;;;25.54;26.58
51178;BME280;37243;49.814;8.652;2023-01-31T02:10:14;101165.72;;;25.54;26.43
51178;BME280;37243;49.814;8.652;2023-01-31T02:12:46;101159.44;;;25.54;26.81
51178;BME280;37243;49.814;8.652;2023-01-31T02:15:15;101166.03;;;25.53;26.80
51178;BME280;37243;49.814;8.652;2023-01-31T02:17:43;101167.69;;;25.54;26.51
51178;BME280;37243;49.814;8.652;2023-01-31T02:20:32;101164.13;;;25.53;26.65
51178;BME280;37243;49.814;8.652;2023-01-31T02:23:18;101164.94;;;25.54;26.43
51178;BME280;37243;49.814;8.652;2023-01-31T02:26:05;101164.94;;;25.54;26.98
51178;BME280;37243;49.814;8.652;2023-01-31T02:34:46;101159.44;;;25.54;27.03
51178;BME280;37243;49.814;8.652;2023-01-31T02:37:25;101162.97;;;25.54;26.36
51178;BME280;37243;49.814;8.652;2023-01-31T02:40:02;101165.22;;;25.52;26.46
51178;BME280;37243;49.814;8.652;2023-01-31T02:42:39;101161.06;;;25.55;27.00
51178;BME280;37243;49.814;8.652;2023-01-31T02:45:19;101162.19;;;25.54;26.84
51178;BME280;37243;49.814;8.652;2023-01-31T02:47:59;101152.31;;;25.53;26.96
51178;BME280;37243;49.814;8.652;2023-01-31T02:50:37;101153.13;;;25.53;26.89
51178;BME280;37243;49.814;8.652;2023-01-31T02:53:13;101149.56;;;25.53;27.09
51178;BME280;37243;49.814;8.652;2023-01-31T02:55:46;101144.06;;;25.53;27.13
51178;BME280;37243;49.814;8.652;2023-01-31T02:58:31;101152.00;;;25.54;27.00
51178;BME280;37243;49.814;8.652;2023-01-31T03:01:02;101146.50;;;25.54;26.36
51178;BME280;37243;49.814;8.652;2023-01-31T03:03:34;101157.50;;;25.54;26.51
51178;BME280;37243;49.814;8.652;2023-01-31T03:09:23;101161.06;;;25.55;26.72
51178;BME280;37243;49.814;8.652;2023-01-31T03:12:09;101159.44;;;25.54;27.10
51178;BME280;37243;49.814;8.652;2023-01-31T03:14:47;101159.44;;;25.54;26.60
51178;BME280;37243;49.814;8.652;2023-01-31T03:17:29;101166.56;;;25.55;26.59
51178;BME280;37243;49.814;8.652;2023-01-31T03:20:06;101171.22;;;25.54;26.55
51178;BME280;37243;49.814;8.652;2023-01-31T03:22:40;101159.44;;;25.54;26.69
51178;BME280;37243;49.814;8.652;2023-01-31T03:25:14;101165.72;;;25.54;26.58
51178;BME280;37243;49.814;8.652;2023-01-31T03:27:48;101170.44;;;25.54;27.00
51178;BME280;37243;49.814;8.652;2023-01-31T03:30:24;101178.69;;;25.54;26.23
51178;BME280;37243;49.814;8.652;2023-01-31T03:32:56;101182.22;;;25.54;26.87
51178;BME280;37243;49.814;8.652;2023-01-31T03:35:30;101188.53;;;25.55;26.75
51178;BME280;37243;49.814;8.652;2023-01-31T03:38:04;101192.09;;;25.55;26.34
51178;BME280;37243;49.814;8.652;2023-01-31T03:40:39;101194.03;;;25.55;26.99
51178;BME280;37243;49.814;8.652;2023-01-31T03:43:13;101194.84;;;25.55;26.62
51178;BME280;37243;49.814;8.652;2023-01-31T03:45:46;101194.84;;;25.55;26.90
51178;BME280;37243;49.814;8.652;2023-01-31T03:48:17;101189.66;;;25.54;26.27
51178;BME280;37243;49.814;8.652;2023-01-31T03:50:51;101195.66;;;25.56;26.68
51178;BME280;37243;49.814;8.652;2023-01-31T03:53:25;101196.78;;;25.55;26.99
51178;BME280;37243;49.814;8.652;2023-01-31T03:56:01;101202.25;;;25.55;26.45
51178;BME280;37243;49.814;8.652;2023-01-31T03:58:34;101204.19;;;25.54;27.23
51178;BME280;37243;49.814;8.652;2023-01-31T04:01:06;101197.09;;;25.53;26.72
51178;BME280;37243;49.814;8.652;2023-01-31T04:03:39;101201.44;;;25.54;27.27
51178;BME280;37243;49.814;8.652;2023-01-31T04:06:10;101206.94;;;25.54;27.08
51178;BME280;37243;49.814;8.652;2023-01-31T04:08:39;101204.19;;;25.54;27.16
51178;BME280;37243;49.814;8.652;2023-01-31T04:11:13;101198.69;;;25.54;26.89
51178;BME280;37243;49.814;8.652;2023-01-31T04:13:42;101204.19;;;25.54;27.49
51178;BME280;37243;49.814;8.652;2023-01-31T04:16:10;101201.75;;;25.53;27.20
51178;BME280;37243;49.814;8.652;2023-01-31T04:18:38;101203.41;;;25.54;27.05
51178;BME280;37243;49.814;8.652;2023-01-31T04:21:06;101212.75;;;25.53;27.37
51178;BME280;37243;49.814;8.652;2023-01-31T04:23:35;101203.41;;;25.54;26.95
51178;BME280;37243;49.814;8.652;2023-01-31T04:26:05;101208.91;;;25.54;27.19
51178;BME280;37243;49.814;8.652;2023-01-31T04:28:36;101206.94;;;25.54;27.62
51178;BME280;37243;49.814;8.652;2023-01-31T04:31:04;101205.00;;;25.55;27.10
51178;BME280;37243;49.814;8.652;2023-01-31T04:33:32;101195.94;;;25.54;27.29
51178;BME280;37243;49.814;8.652;2023-01-31T04:36:00;101189.66;;;25.54;26.98
51178;BME280;37243;49.814;8.652;2023-01-31T04:38:29;101194.03;;;25.55;27.21
51178;BME280;37243;49.814;8.652;2023-01-31T04:40:57;101184.19;;;25.54;27.04
51178;BME280;37243;49.814;8.652;2023-01-31T04:43:25;101198.41;;;25.56;26.98
51178;BME280;37243;49.814;8.652;2023-01-31T04:45:56;101195.66;;;25.56;26.94
51178;BME280;37243;49.814;8.652;2023-01-31T04:48:24;101182.22;;;25.54;27.03
51178;BME280;37243;49.814;8.652;2023-01-31T04:50:53;101189.34;;;25.55;26.91
51178;BME280;37243;49.814;8.652;2023-01-31T04:53:21;101183.84;;;25.55;27.49
51178;BME280;37243;49.814;8.652;2023-01-31T04:55:52;101179.19;;;25.56;26.83
51178;BME280;37243;49.814;8.652;2023-01-31T04:58:21;101180.81;;;25.57;27.37
51178;BME280;37243;49.814;8.652;2023-01-31T05:00:52;101173.69;;;25.56;26.59
51178;BME280;37243;49.814;8.652;2023-01-31T05:03:23;101175.31;;;25.57;27.00
51178;BME280;37243;49.814;8.652;2023-01-31T05:05:51;101155.28;;;25.56;26.93
51178;BME280;37243;49.814;8.652;2023-01-31T05:08:19;101158.84;;;25.57;26.83
51178;BME280;37243;49.814;8.652;2023-01-31T05:10:47;101161.28;;;25.58;27.00
51178;BME280;37243;49.814;8.652;2023-01-31T05:13:16;101165.94;;;25.58;27.09
51178;BME280;37243;49.814;8.652;2023-01-31T05:15:47;101153.03;;;25.58;27.16
51178;BME280;37243;49.814;8.652;2023-01-31T05:18:15;101151.09;;;25.59;27.19
51178;BME280;37243;49.814;8.652;2023-01-31T05:20:47;101149.19;;;25.59;27.21
51178;BME280;37243;49.814;8.652;2023-01-31T05:23:15;101159.84;;;25.61;26.75
51178;BME280;37243;49.814;8.652;2023-01-31T05:25:44;101169.22;;;25.60;26.73
51178;BME280;37243;49.814;8.652;2023-01-31T05:28:12;101166.16;;;25.61;27.12
51178;BME280;37243;49.814;8.652;2023-01-31T05:30:40;101166.97;;;25.62;26.90
51178;BME280;37243;49.814;8.652;2023-01-31T05:33:09;101156.81;;;25.62;27.01
51178;BME280;37243;49.814;8.652;2023-01-31T05:35:37;101165.06;;;25.62;26.76
51178;BME280;37243;49.814;8.652;2023-01-31T05:38:09;101156.81;;;25.62;26.57
51178;BME280;37243;49.814;8.652;2023-01-31T05:40:37;101150.50;;;25.62;26.87
51178;BME280;37243;49.814;8.652;2023-01-31T05:43:05;101147.44;;;25.63;26.05
51178;BME280;37243;49.814;8.652;2023-01-31T05:45:34;101138.69;;;25.61;26.34
51178;BME280;37243;49.814;8.652;2023-01-31T05:48:02;101140.31;;;25.62;26.67
51178;BME280;37243;49.814;8.652;2023-01-31T05:50:31;101138.69;;;25.61;26.50
51178;BME280;37243;49.814;8.652;2023-01-31T05:52:59;101148.25;;;25.64;26.99
51178;BME280;37243;49.814;8.652;2023-01-31T05:55:30;101149.06;;;25.64;26.87
51178;BME280;37243;49.814;8.652;2023-01-31T05:57:59;101153.75;;;25.64;27.22
51178;BME280;37243;49.814;8.652;2023-01-31T06:00:27;101153.25;;;25.62;27.43
51178;BME280;37243;49.814;8.652;2023-01-31T06:02:56;101141.44;;;25.61;26.74
51178;BME280;37243;49.814;8.652;2023-01-31T06:05:26;101156.81;;;25.62;27.37
51178;BME280;37243;49.814;8.652;2023-01-31T06:07:54;101153.25;;;25.62;27.49
51178;BME280;37243;49.814;8.652;2023-01-31T06:10:23;101150.50;;;25.62;27.13
51178;BME280;37243;49.814;8.652;2023-01-31T06:12:53;101148.56;;;25.62;27.00
51178;BME280;37243;49.814;8.652;2023-01-31T06:15:22;101145.28;;;25.60;27.61
51178;BME280;37243;49.814;8.652;2023-01-31T06:17:50;101150.50;;;25.62;27.29
51178;BME280;37243;49.814;8.652;2023-01-31T06:20:18;101150.50;;;25.62;27.56
51178;BME280;37243;49.814;8.652;2023-01-31T06:22:46;101144.50;;;25.60;27.21
51178;BME280;37243;49.814;8.652;2023-01-31T06:25:15;101137.88;;;25.61;27.08
51178;BME280;37243;49.814;8.652;2023-01-31T06:27:43;101138.19;;;25.59;27.67
51178;BME280;37243;49.814;8.652;2023-01-31T06:30:14;101145.00;;;25.62;27.21
51178;BME280;37243;49.814;8.652;2023-01-31T06:32:43;101146.09;;;25.61;27.20
51178;BME280;37243;49.814;8.652;2023-01-31T06:35:11;101141.44;;;25.61;27.04
51178;BME280;37243;49.814;8.652;2023-01-31T06:37:39;101140.63;;;25.61;27.20
51178;BME280;37243;49.814;8.652;2023-01-31T06:40:09;101138.19;;;25.59;27.38
51178;BME280;37243;49.814;8.652;2023-01-31T06:42:38;101140.63;;;25.61;27.49
51178;BME280;37243;49.814;8.652;2023-01-31T06:45:07;101134.84;;;25.62;27.68
51178;BME280;37243;49.814;8.652;2023-01-31T06:47:38;101129.63;;;25.61;27.41
51178;BME280;37243;49.814;8.652;2023-01-31T06:50:09;101135.13;;;25.61;27.21
51178;BME280;37243;49.814;8.652;2023-01-31T06:52:38;101141.44;;;25.61;27.20
51178;BME280;37243;49.814;8.652;2023-01-31T06:55:07;101139.50;;;25.62;27.70
51178;BME280;37243;49.814;8.652;2023-01-31T06:57:36;101138.69;;;25.61;27.14
51178;BME280;37243;49.814;8.652;2023-01-31T07:00:13;101154.34;;;25.61;27.12
51178;BME280;37243;49.814;8.652;2023-01-31T07:02:45;101153.25;;;25.62;27.21
51178;BME280;37243;49.814;8.652;2023-01-31T07:05:14;101150.19;;;25.63;27.23
51178;BME280;37243;49.814;8.652;2023-01-31T07:07:42;101148.56;;;25.62;27.41
51178;BME280;37243;49.814;8.652;2023-01-31T07:10:11;101155.69;;;25.63;27.04
51178;BME280;37243;49.814;8.652;2023-01-31T07:12:40;101170.22;;;25.64;27.19
51178;BME280;37243;49.814;8.652;2023-01-31T07:15:09;101169.41;;;25.63;27.18
51178;BME280;37243;49.814;8.652;2023-01-31T07:17:38;101171.88;;;25.65;27.51
51178;BME280;37243;49.814;8.652;2023-01-31T07:20:10;101175.44;;;25.65;27.01
51178;BME280;37243;49.814;8.652;2023-01-31T07:22:39;101177.38;;;25.65;27.14
51178;BME280;37243;49.814;8.652;2023-01-31T07:25:08;101178.97;;;25.66;27.04
51178;BME280;37243;49.814;8.652;2023-01-31T07:27:36;101178.97;;;25.66;27.06
51178;BME280;37243;49.814;8.652;2023-01-31T07:30:06;101185.63;;;25.65;27.24
51178;BME280;37243;49.814;8.652;2023-01-31T07:32:34;101191.09;;;25.65;27.46
51178;BME280;37243;49.814;8.652;2023-01-31T07:35:03;101191.63;;;25.67;27.25
51178;BME280;37243;49.814;8.652;2023-01-31T07:37:33;101197.09;;;25.67;27.79
51178;BME280;37243;49.814;8.652;2023-01-31T07:40:02;101194.06;;;25.68;27.40
51178;BME280;37243;49.814;8.652;2023-01-31T07:42:31;101199.56;;;25.68;27.71
51178;BME280;37243;49.814;8.652;2023-01-31T07:44:59;101202.31;;;25.68;27.32
51178;BME280;37243;49.814;8.652;2023-01-31T07:47:27;101204.25;;;25.68;27.44
51178;BME280;37243;49.814;8.652;2023-01-31T07:49:56;101211.06;;;25.70;27.75
51178;BME280;37243;49.814;8.652;2023-01-31T07:52:24;101207.50;;;25.70;27.64
51178;BME280;37243;49.814;8.652;2023-01-31T07:54:55;101215.75;;;25.70;27.69
51178;BME280;37243;49.814;8.652;2023-01-31T07:57:23;101220.41;;;25.69;27.82
51178;BME280;37243;49.814;8.652;2023-01-31T07:59:51;101226.72;;;25.70;27.40
51178;BME280;37243;49.814;8.652;2023-01-31T08:02:19;101226.72;;;25.70;27.44
51178;BME280;37243;49.814;8.652;2023-01-31T08:05:00;101224.81;;;25.70;27.58
51178;BME280;37243;49.814;8.652;2023-01-31T08:07:29;101232.22;;;25.70;27.15
51178;BME280;37243;49.814;8.652;2023-01-31T08:10:00;101233.88;;;25.71;27.79
51178;BME280;37243;49.814;8.652;2023-01-31T08:12:28;101224.81;;;25.70;27.30
51178;BME280;37243;49.814;8.652;2023-01-31T08:14:56;101226.72;;;25.70;27.31
51178;BME280;37243;49.814;8.652;2023-01-31T08:17:24;101225.63;;;25.71;27.37
51178;BME280;37243;49.814;8.652;2023-01-31T08:19:53;101227.56;;;25.70;27.20
51178;BME280;37243;49.814;8.652;2023-01-31T08:22:21;101219.00;;;25.72;27.27
51178;BME280;37243;49.814;8.652;2023-01-31T08:24:49;101231.63;;;25.73;27.42
51178;BME280;37243;49.814;8.652;2023-01-31T08:27:20;101227.25;;;25.72;27.98
51178;BME280;37243;49.814;8.652;2023-01-31T08:29:48;101221.44;;;25.73;28.54
51178;BME280;37243;49.814;8.652;2023-01-31T08:32:17;101223.38;;;25.73;27.71
51178;BME280;37243;49.814;8.652;2023-01-31T08:34:45;101230.81;;;25.72;27.61
51178;BME280;37243;49.814;8.652;2023-01-31T08:37:13;101231.94;;;25.71;27.92
51178;BME280;37243;49.814;8.652;2023-01-31T08:39:42;101234.38;;;25.73;27.66
51178;BME280;37243;49.814;8.652;2023-01-31T08:42:10;101225.31;;;25.72;28.25
51178;BME280;37243;49.814;8.652;2023-01-31T08:44:41;101224.19;;;25.73;27.66
51178;BME280;37243;49.814;8.652;2023-01-31T08:47:09;101223.38;;;25.73;27.48
51178;BME280;37243;49.814;8.652;2023-01-31T08:49:37;101219.53;;;25.74;27.88
51178;BME280;37243;49.814;8.652;2023-01-31T08:52:06;101221.44;;;25.73;27.95
51178;BME280;37243;49.814;8.652;2023-01-31T08:54:34;101213.22;;;25.73;27.49
51178;BME280;37243;49.814;8.652;2023-01-31T08:57:02;101212.38;;;25.73;27.74
51178;BME280;37243;49.814;8.652;2023-01-31T08:59:30;101216.78;;;25.74;27.69
51178;BME280;37243;49.814;8.652;2023-01-31T09:02:02;101221.97;;;25.75;27.37
51178;BME280;37243;49.814;8.652;2023-01-31T09:04:30;101236.00;;;25.74;27.43
51178;BME280;37243;49.814;8.652;2023-01-31T09:06:59;101226.63;;;25.75;28.26
51178;BME280;37243;49.814;8.652;2023-01-31T09:09:27;101218.38;;;25.75;27.90
51178;BME280;37243;49.814;8.652;2023-01-31T09:11:55;101226.63;;;25.75;27.86
51178;BME280;37243;49.814;8.652;2023-01-31T09:14:23;101225.53;;;25.76;28.14
51178;BME280;37243;49.814;8.652;2023-01-31T09:16:52;101218.38;;;25.75;27.54
51178;BME280;37243;49.814;8.652;2023-01-31T09:19:22;101207.94;;;25.77;27.67
51178;BME280;37243;49.814;8.652;2023-01-31T09:21:51;101198.03;;;25.76;27.60
51178;BME280;37243;49.814;8.652;2023-01-31T09:24:19;101194.47;;;25.75;27.95
51178;BME280;37243;49.814;8.652;2023-01-31T09:26:47;101196.41;;;25.75;28.24
51178;BME280;37243;49.814;8.652;2023-01-31T09:29:17;101207.94;;;25.77;28.34
51178;BME280;37243;49.814;8.652;2023-01-31T09:31:45;101203.22;;;25.77;28.15
51178;BME280;37243;49.814;8.652;2023-01-31T09:34:17;101203.22;;;25.77;28.26
51178;BME280;37243;49.814;8.652;2023-01-31T09:36:49;101198.53;;;25.78;28.32
51178;BME280;37243;49.814;8.652;2023-01-31T09:39:18;101209.53;;;25.78;27.76
51178;BME280;37243;49.814;8.652;2023-01-31T09:41:49;101207.31;;;25.80;28.30
51178;BME280;37243;49.814;8.652;2023-01-31T09:44:22;101199.06;;;25.80;27.61
51178;BME280;37243;49.814;8.652;2023-01-31T09:46:58;101212.81;;;25.80;28.03
51178;BME280;37243;49.814;8.652;2023-01-31T09:49:36;101213.63;;;25.80;28.39
51178;BME280;37243;49.814;8.652;2023-01-31T09:52:09;101217.19;;;25.81;27.67
51178;BME280;37243;49.814;8.652;2023-01-31T09:54:39;101213.63;;;25.80;27.72
51178;BME280;37243;49.814;8.652;2023-01-31T09:57:19;101221.84;;;25.80;27.82
51178;BME280;37243;49.814;8.652;2023-01-31T09:59:55;101216.06;;;25.82;28.47
51178;BME280;37243;49.814;8.652;2023-01-31T10:02:50;101215.56;;;25.80;27.92
51178;BME280;37243;49.814;8.652;2023-01-31T10:05:30;101216.06;;;25.82;28.27
51178;BME280;37243;49.814;8.652;2023-01-31T10:08:12;101205.06;;;25.82;28.24
51178;BME280;37243;49.814;8.652;2023-01-31T10:10:44;101199.59;;;25.82;28.66
51178;BME280;37243;49.814;8.652;2023-01-31T10:13:19;101190.22;;;25.83;27.95
51178;BME280;37243;49.814;8.652;2023-01-31T10:15:51;101183.59;;;25.84;28.40
51178;BME280;37243;49.814;8.652;2023-01-31T10:18:24;101169.84;;;25.84;28.33
51178;BME280;37243;49.814;8.652;2023-01-31T10:20:55;101176.97;;;25.85;28.34
51178;BME280;37243;49.814;8.652;2023-01-31T10:23:30;101175.06;;;25.85;27.86
51178;BME280;37243;49.814;8.652;2023-01-31T10:26:02;101162.41;;;25.84;28.31
51178;BME280;37243;49.814;8.652;2023-01-31T10:28:35;101190.41;;;25.86;28.09
51178;BME280;37243;49.814;8.652;2023-01-31T10:31:14;101179.41;;;25.86;28.09
51178;BME280;37243;49.814;8.652;2023-01-31T10:33:48;101178.59;;;25.86;28.38
51178;BME280;37243;49.814;8.652;2023-01-31T10:36:24;101173.09;;;25.86;28.38
51178;BME280;37243;49.814;8.652;2023-01-31T10:39:03;101169.84;;;25.84;28.00
51178;BME280;37243;49.814;8.652;2023-01-31T10:41:43;101160.19;;;25.86;28.08
51178;BME280;37243;49.814;8.652;2023-01-31T10:44:20;101162.09;;;25.86;28.02
51178;BME280;37243;49.814;8.652;2023-01-31T10:46:51;101169.56;;;25.85;28.73
51178;BME280;37243;49.814;8.652;2023-01-31T10:49:23;101177.47;;;25.87;28.42
51178;BME280;37243;49.814;8.652;2023-01-31T10:52:05;101165.38;;;25.88;28.25
51178;BME280;37243;49.814;8.652;2023-01-31T10:54:47;101152.75;;;25.87;28.78
51178;BME280;37243;49.814;8.652;2023-01-31T10:57:16;101169.25;;;25.87;28.38
51178;BME280;37243;49.814;8.652;2023-01-31T10:59:45;101157.13;;;25.88;28.54
51178;BME280;37243;49.814;8.652;2023-01-31T11:02:18;101137.88;;;25.88;29.07
51178;BME280;37243;49.814;8.652;2023-01-31T11:04:48;101118.66;;;25.88;28.87
51178;BME280;37243;49.814;8.652;2023-01-31T11:07:16;101113.97;;;25.88;28.88
51178;BME280;37243;49.814;8.652;2023-01-31T11:09:51;101100.22;;;25.88;28.56
51178;BME280;37243;49.814;8.652;2023-01-31T11:12:20;101098.28;;;25.89;28.09
51178;BME280;37243;49.814;8.652;2023-01-31T11:15:03;101080.16;;;25.88;28.43
51178;BME280;37243;49.814;8.652;2023-01-31T11:17:35;101081.78;;;25.89;28.65
51178;BME280;37243;49.814;8.652;2023-01-31T11:20:05;101079.03;;;25.89;28.59
51178;BME280;37243;49.814;8.652;2023-01-31T11:22:36;101085.34;;;25.89;28.45
51178;BME280;37243;49.814;8.652;2023-01-31T11:25:18;101075.50;;;25.88;28.83
51178;BME280;37243;49.814;8.652;2023-01-31T11:27:48;101067.75;;;25.90;28.57
51178;BME280;37243;49.814;8.652;2023-01-31T11:30:22;101060.59;;;25.89;28.53
51178;BME280;37243;49.814;8.652;2023-01-31T11:32:52;101055.09;;;25.89;28.30
51178;BME280;37243;49.814;8.652;2023-01-31T11:35:23;101059.50;;;25.90;28.64
51178;BME280;37243;49.814;8.652;2023-01-31T11:37:54;101051.53;;;25.89;28.87
51178;BME280;37243;49.814;8.652;2023-01-31T11:40:30;101037.50;;;25.90;28.55
51178;BME280;37243;49.814;8.652;2023-01-31T11:43:00;101050.44;;;25.90;28.91
51178;BME280;37243;49.814;8.652;2023-01-31T11:45:29;101055.94;;;25.90;28.48
51178;BME280;37243;49.814;8.652;2023-01-31T11:48:04;101036.69;;;25.90;28.57
51178;BME280;37243;49.814;8.652;2023-01-31T11:50:38;101045.75;;;25.90;28.62
51178;BME280;37243;49.814;8.652;2023-01-31T11:53:15;101033.94;;;25.90;28.55
51178;BME280;37243;49.814;8.652;2023-01-31T11:55:48;101038.31;;;25.91;29.00
51178;BME280;37243;49.814;8.652;2023-01-31T11:58:21;101033.63;;;25.91;28.16
51178;BME280;37243;49.814;8.652;2023-01-31T12:00:53;101031.69;;;25.92;28.81
51178;BME280;37243;49.814;8.652;2023-01-31T12:03:22;101028.94;;;25.92;28.58
51178;BME280;37243;49.814;8.652;2023-01-31T12:05:59;101008.09;;;25.91;28.17
51178;BME280;37243;49.814;8.652;2023-01-31T12:08:29;101014.06;;;25.93;28.71
51178;BME280;37243;49.814;8.652;2023-01-31T12:11:03;101006.66;;;25.93;28.63
51178;BME280;37243;49.814;8.652;2023-01-31T12:13:45;101017.16;;;25.91;28.63
51178;BME280;37243;49.814;8.652;2023-01-31T12:16:13;101007.75;;;25.92;28.61
51178;BME280;37243;49.814;8.652;2023-01-31T12:18:52;101006.16;;;25.91;28.60
51178;BME280;37243;49.814;8.652;2023-01-31T12:21:35;101007.75;;;25.92;28.59
51178;BME280;37243;49.814;8.652;2023-01-31T12:24:15;101010.50;;;25.92;28.88
51178;BME280;37243;49.814;8.652;2023-01-31T12:26:51;101005.50;;;25.94;28.62
51178;BME280;37243;49.814;8.652;2023-01-31T12:29:41;100983.84;;;25.93;28.38
51178;BME280;37243;49.814;8.652;2023-01-31T12:32:33;100969.28;;;25.92;28.63
51178;BME280;37243;49.814;8.652;2023-01-31T12:35:29;100954.72;;;25.92;29.01
51178;BME280;37243;49.814;8.652;2023-01-31T12:38:14;100967.34;;;25.93;29.08
51178;BME280;37243;49.814;8.652;2023-01-31T12:40:52;100980.75;;;25.94;28.58
51178;BME280;37243;49.814;8.652;2023-01-31T12:43:44;100971.72;;;25.94;28.65
51178;BME280;37243;49.814;8.652;2023-01-31T12:46:24;100958.78;;;25.94;28.33
51178;BME280;37243;49.814;8.652;2023-01-31T12:49:04;100951.34;;;25.95;28.73
51178;BME280;37243;49.814;8.652;2023-01-31T12:51:43;100940.34;;;25.95;29.05
51178;BME280;37243;49.814;8.652;2023-01-31T12:54:24;100934.84;;;25.95;28.31
51178;BME280;37243;49.814;8.652;2023-01-31T12:57:10;100933.25;;;25.94;28.79
51178;BME280;37243;49.814;8.652;2023-01-31T12:59:49;100922.75;;;25.96;28.70
51178;BME280;37243;49.814;8.652;2023-01-31T13:02:32;100918.34;;;25.95;28.55
51178;BME280;37243;49.814;8.652;2023-01-31T13:05:10;100925.50;;;25.96;28.32
51178;BME280;37243;49.814;8.652;2023-01-31T13:07:45;100921.09;;;25.95;28.32
51178;BME280;37243;49.814;8.652;2023-01-31T13:10:25;100921.91;;;25.95;28.69
51178;BME280;37243;49.814;8.652;2023-01-31T13:12:56;100912.84;;;25.95;28.80
51178;BME280;37243;49.814;8.652;2023-01-31T13:15:31;100918.34;;;25.95;28.73
51178;BME280;37243;49.814;8.652;2023-01-31T13:18:04;100919.19;;;25.95;28.41
51178;BME280;37243;49.814;8.652;2023-01-31T13:20:36;100910.63;;;25.97;29.09
51178;BME280;37243;49.814;8.652;2023-01-31T13:23:11;100899.63;;;25.97;28.62